Peary Spirit — C6YM3 — position and weather

sailwx.info

Track history (hours):
 
Tides and Currents Weather Stations Pressure Air Temp Water Temp Dewpoint Dewpoint Depression Visibility Wind Speed Wind Dir Waves Ship Positions

Peary Spirit

Last reported at 2014-Jul-28 12:33 UTC. Time now 2014-Jul-28 22:38 UTC.
Position N 58°22' E 005°23'.

Length 249 m; draft 9.2 m.

Type: Tanker. MMSI: 311027600.

Date/timePositionNaut miles runAvg speedWind from/ knotsBaromVisibWave heightAir tempDewpointWater temp
2014-Jul-28 12:33N 58°22' E 005°23'5 4.8
2014-Jul-28 11:29N 58°19' E 005°31'5 5.1
2014-Jul-28 10:32N 58°16' E 005°38'6 5.5
2014-Jul-28 09:31N 58°12' E 005°46'6 6.1
2014-Jul-28 08:33N 58°08' E 005°54'6 6.2
2014-Jul-28 07:33N 58°04' E 006°03'124 5.6
2014-Jul-27 09:32N 57°47' E 009°54'6 6.1
2014-Jul-27 08:33N 57°47' E 010°05'6 6.3
2014-Jul-27 07:33N 57°47' E 010°17'7 6.5
2014-Jul-27 06:33N 57°47' E 010°29'7 6.6
2014-Jul-27 05:33N 57°47' E 010°42'7 6.8
2014-Jul-27 04:33N 57°44' E 010°53'9 8.9
2014-Jul-27 03:33N 57°38' E 011°05'9 9.3
2014-Jul-27 02:33N 57°32' E 011°18'1010.1
2014-Jul-27 01:33N 57°24' E 011°29'1211.4
2014-Jul-27 00:33N 57°13' E 011°36'1211.7
2014-Jul-26 23:33N 57°02' E 011°44'1111.3
2014-Jul-26 22:33N 56°51' E 011°51'9 9.3
2014-Jul-26 21:33N 56°42' E 011°46'1110.7
2014-Jul-26 20:33N 56°35' E 011°32'1110.6
2014-Jul-26 19:33N 56°29' E 011°17'10 9.8
2014-Jul-26 18:30N 56°22' E 011°02'11 9.9
2014-Jul-26 17:25N 56°12' E 011°03'29 0.8
2014-Jul-25 06:26N 55°42' E 010°57'0 0.0
2014-Jul-25 00:19N 55°42' E 010°57'0 0.0
2014-Jul-24 23:31N 55°42' E 010°57'0 0.0
2014-Jul-24 22:31N 55°42' E 010°57'0 0.0
2014-Jul-24 21:14N 55°42' E 010°57'0 0.0
2014-Jul-24 19:20N 55°42' E 010°57'0 0.0
2014-Jul-24 17:14N 55°42' E 010°57'0 0.0
2014-Jul-24 07:13N 55°42' E 010°57'0 0.0
2014-Jul-24 06:25N 55°42' E 010°57'0 0.0
2014-Jul-24 05:31N 55°42' E 010°57'0 0.0
2014-Jul-24 04:31N 55°42' E 010°57'0 0.1
2014-Jul-24 03:31N 55°42' E 010°57'0 0.1
2014-Jul-24 02:31N 55°42' E 010°57'0 0.0
2014-Jul-24 01:31N 55°43' E 010°57'0 0.0
2014-Jul-24 00:31N 55°43' E 010°57'0 0.0
2014-Jul-23 23:32N 55°43' E 010°57'0 0.1
2014-Jul-23 22:31N 55°43' E 010°57'0 0.0
2014-Jul-23 18:31N 55°42' E 010°57'0 0.0
2014-Jul-23 17:31N 55°42' E 010°57'0 0.0
2014-Jul-22 22:13N 55°43' E 010°57'0 0.0
2014-Jul-22 20:31N 55°43' E 010°57'0 0.1
2014-Jul-22 19:31N 55°42' E 010°57'0 0.1
2014-Jul-22 18:25N 55°42' E 010°57'0 0.0
2014-Jul-22 17:31N 55°42' E 010°57'0 0.0
2014-Jul-22 16:31N 55°42' E 010°57'0 0.0
2014-Jul-22 15:31N 55°42' E 010°57'0 0.0
2014-Jul-22 14:31N 55°42' E 010°57'0 0.0
2014-Jul-22 08:25N 55°42' E 010°57'0 0.0
2014-Jul-22 06:25N 55°42' E 010°57'0 0.0
2014-Jul-22 05:31N 55°42' E 010°57'0 0.0
2014-Jul-22 04:22N 55°42' E 010°57'0 0.0
2014-Jul-22 03:13N 55°42' E 010°57'0 0.0
2014-Jul-22 02:25N 55°42' E 010°57'0 0.0
2014-Jul-21 04:31N 55°42' E 010°57'0 0.0
2014-Jul-21 03:31N 55°42' E 010°57'0 0.0
2014-Jul-21 02:19N 55°42' E 010°57'0 0.0
2014-Jul-21 01:19N 55°42' E 010°57'0 0.0
2014-Jul-21 00:28N 55°42' E 010°57'0 0.0
2014-Jul-20 23:22N 55°42' E 010°57'0 0.0
2014-Jul-20 06:25N 55°43' E 010°57'0 0.1
2014-Jul-20 04:22N 55°42' E 010°57'0 0.0
2014-Jul-20 03:16N 55°42' E 010°57'0 0.0
2014-Jul-20 02:31N 55°42' E 010°57'0 0.1
2014-Jul-20 01:31N 55°42' E 010°57'0 0.1
2014-Jul-20 00:31N 55°43' E 010°57'0 0.1
2014-Jul-19 23:25N 55°43' E 010°57'0 0.1
2014-Jul-19 22:31N 55°43' E 010°57'0 0.0
2014-Jul-19 21:10N 55°43' E 010°57'0 0.0
2014-Jul-19 08:10N 55°43' E 010°57'0 0.0
2014-Jul-19 07:25N 55°43' E 010°57'0 0.0
2014-Jul-19 06:25N 55°43' E 010°57'0 0.0
2014-Jul-19 05:31N 55°43' E 010°57'0 0.0
2014-Jul-19 04:31N 55°43' E 010°57'0 0.0
2014-Jul-19 03:31N 55°43' E 010°57'0 0.0
2014-Jul-19 02:28N 55°43' E 010°57'0 0.0
2014-Jul-19 01:31N 55°43' E 010°57'0 0.1
2014-Jul-19 00:28N 55°43' E 010°57'0 0.0
2014-Jul-18 23:31N 55°43' E 010°57'  
Track history (hours):
 
Tides and Currents Weather Stations Pressure Air Temp Water Temp Dewpoint Dewpoint Depression Visibility Wind Speed Wind Dir Waves Ship Positions

Peary Spirit

Last reported at 2014-Jul-28 12:33 UTC. Time now 2014-Jul-28 22:38 UTC.
Position N 58°22' E 005°23'.

Length 249 m; draft 9.2 m.

Type: Tanker. MMSI: 311027600.

Date/timePositionNaut miles runAvg speedWind from/ knotsBaromVisibWave heightAir tempDewpointWater temp
2014-Jul-28 12:33N 58°22' E 005°23'5 4.8
2014-Jul-28 11:29N 58°19' E 005°31'5 5.1
2014-Jul-28 10:32N 58°16' E 005°38'6 5.5
2014-Jul-28 09:31N 58°12' E 005°46'6 6.1
2014-Jul-28 08:33N 58°08' E 005°54'6 6.2
2014-Jul-28 07:33N 58°04' E 006°03'124 5.6
2014-Jul-27 09:32N 57°47' E 009°54'6 6.1
2014-Jul-27 08:33N 57°47' E 010°05'6 6.3
2014-Jul-27 07:33N 57°47' E 010°17'7 6.5
2014-Jul-27 06:33N 57°47' E 010°29'7 6.6
2014-Jul-27 05:33N 57°47' E 010°42'7 6.8
2014-Jul-27 04:33N 57°44' E 010°53'9 8.9
2014-Jul-27 03:33N 57°38' E 011°05'9 9.3
2014-Jul-27 02:33N 57°32' E 011°18'1010.1
2014-Jul-27 01:33N 57°24' E 011°29'1211.4
2014-Jul-27 00:33N 57°13' E 011°36'1211.7
2014-Jul-26 23:33N 57°02' E 011°44'1111.3
2014-Jul-26 22:33N 56°51' E 011°51'9 9.3
2014-Jul-26 21:33N 56°42' E 011°46'1110.7
2014-Jul-26 20:33N 56°35' E 011°32'1110.6
2014-Jul-26 19:33N 56°29' E 011°17'10 9.8
2014-Jul-26 18:30N 56°22' E 011°02'11 9.9
2014-Jul-26 17:25N 56°12' E 011°03'29 0.8
2014-Jul-25 06:26N 55°42' E 010°57'0 0.0
2014-Jul-25 00:19N 55°42' E 010°57'0 0.0
2014-Jul-24 23:31N 55°42' E 010°57'0 0.0
2014-Jul-24 22:31N 55°42' E 010°57'0 0.0
2014-Jul-24 21:14N 55°42' E 010°57'0 0.0
2014-Jul-24 19:20N 55°42' E 010°57'0 0.0
2014-Jul-24 17:14N 55°42' E 010°57'0 0.0
2014-Jul-24 07:13N 55°42' E 010°57'0 0.0
2014-Jul-24 06:25N 55°42' E 010°57'0 0.0
2014-Jul-24 05:31N 55°42' E 010°57'0 0.0
2014-Jul-24 04:31N 55°42' E 010°57'0 0.1
2014-Jul-24 03:31N 55°42' E 010°57'0 0.1
2014-Jul-24 02:31N 55°42' E 010°57'0 0.0
2014-Jul-24 01:31N 55°43' E 010°57'0 0.0
2014-Jul-24 00:31N 55°43' E 010°57'0 0.0
2014-Jul-23 23:32N 55°43' E 010°57'0 0.1
2014-Jul-23 22:31N 55°43' E 010°57'0 0.0
2014-Jul-23 18:31N 55°42' E 010°57'0 0.0
2014-Jul-23 17:31N 55°42' E 010°57'0 0.0
2014-Jul-22 22:13N 55°43' E 010°57'0 0.0
2014-Jul-22 20:31N 55°43' E 010°57'0 0.1
2014-Jul-22 19:31N 55°42' E 010°57'0 0.1
2014-Jul-22 18:25N 55°42' E 010°57'0 0.0
2014-Jul-22 17:31N 55°42' E 010°57'0 0.0
2014-Jul-22 16:31N 55°42' E 010°57'0 0.0
2014-Jul-22 15:31N 55°42' E 010°57'0 0.0
2014-Jul-22 14:31N 55°42' E 010°57'0 0.0
2014-Jul-22 08:25N 55°42' E 010°57'0 0.0
2014-Jul-22 06:25N 55°42' E 010°57'0 0.0
2014-Jul-22 05:31N 55°42' E 010°57'0 0.0
2014-Jul-22 04:22N 55°42' E 010°57'0 0.0
2014-Jul-22 03:13N 55°42' E 010°57'0 0.0
2014-Jul-22 02:25N 55°42' E 010°57'0 0.0
2014-Jul-21 04:31N 55°42' E 010°57'0 0.0
2014-Jul-21 03:31N 55°42' E 010°57'0 0.0
2014-Jul-21 02:19N 55°42' E 010°57'0 0.0
2014-Jul-21 01:19N 55°42' E 010°57'0 0.0
2014-Jul-21 00:28N 55°42' E 010°57'0 0.0
2014-Jul-20 23:22N 55°42' E 010°57'0 0.0
2014-Jul-20 06:25N 55°43' E 010°57'0 0.1
2014-Jul-20 04:22N 55°42' E 010°57'0 0.0
2014-Jul-20 03:16N 55°42' E 010°57'0 0.0
2014-Jul-20 02:31N 55°42' E 010°57'0 0.1
2014-Jul-20 01:31N 55°42' E 010°57'0 0.1
2014-Jul-20 00:31N 55°43' E 010°57'0 0.1
2014-Jul-19 23:25N 55°43' E 010°57'0 0.1
2014-Jul-19 22:31N 55°43' E 010°57'0 0.0
2014-Jul-19 21:10N 55°43' E 010°57'0 0.0
2014-Jul-19 08:10N 55°43' E 010°57'0 0.0
2014-Jul-19 07:25N 55°43' E 010°57'0 0.0
2014-Jul-19 06:25N 55°43' E 010°57'0 0.0
2014-Jul-19 05:31N 55°43' E 010°57'0 0.0
2014-Jul-19 04:31N 55°43' E 010°57'0 0.0
2014-Jul-19 03:31N 55°43' E 010°57'0 0.0
2014-Jul-19 02:28N 55°43' E 010°57'0 0.0
2014-Jul-19 01:31N 55°43' E 010°57'0 0.1
2014-Jul-19 00:28N 55°43' E 010°57'0 0.0
2014-Jul-18 23:31N 55°43' E 010°57'  

Dump ship's entire track history